createdAt,value
2018-03-23T00:01:12.944Z,4.20
2018-03-23T00:04:17.043Z,4.80
2018-03-23T00:07:20.395Z,4.57
2018-03-23T00:10:23.745Z,5.03
2018-03-23T00:13:28.034Z,4.60
2018-03-23T00:16:31.474Z,4.90
2018-03-23T00:19:35.716Z,4.90
2018-03-23T00:22:39.060Z,4.30
2018-03-23T00:25:43.190Z,4.03
2018-03-23T00:28:47.621Z,3.50
2018-03-23T00:31:51.019Z,3.83
2018-03-23T00:34:54.353Z,3.60
2018-03-23T00:37:57.729Z,3.50
2018-03-23T00:41:01.854Z,3.10
2018-03-23T00:44:05.232Z,2.60
2018-03-23T00:47:08.592Z,2.60
2018-03-23T00:50:11.970Z,2.50
2018-03-23T00:53:15.338Z,2.60
2018-03-23T00:56:19.456Z,2.57
2018-03-23T00:59:23.578Z,2.27
2018-03-23T01:02:27.847Z,2.27
2018-03-23T01:05:31.649Z,2.10
2018-03-23T01:08:34.989Z,1.67
2018-03-23T01:11:39.102Z,2.30
2018-03-23T01:14:42.448Z,1.80
2018-03-23T01:17:45.940Z,1.90
2018-03-23T01:20:49.286Z,1.53
2018-03-23T01:23:52.633Z,1.60
2018-03-23T01:26:55.985Z,1.97
2018-03-23T01:30:00.090Z,1.70
2018-03-23T01:33:03.433Z,1.67
2018-03-23T01:36:07.579Z,1.73
2018-03-23T01:39:10.925Z,1.80
2018-03-23T01:42:14.430Z,1.60
2018-03-23T01:45:17.793Z,1.63
2018-03-23T01:48:21.136Z,1.93
2018-03-23T01:51:25.244Z,1.60
2018-03-23T01:54:28.606Z,1.50
2018-03-23T01:57:31.977Z,1.70
2018-03-23T02:00:35.313Z,1.90
2018-03-23T02:03:38.700Z,2.20
2018-03-23T02:06:42.268Z,2.10
2018-03-23T02:09:45.668Z,2.50
2018-03-23T02:12:49.948Z,2.40
2018-03-23T02:15:53.376Z,2.47
2018-03-23T02:18:57.492Z,2.40
2018-03-23T02:22:01.610Z,2.60
2018-03-23T02:25:05.720Z,3.40
2018-03-23T02:28:09.958Z,3.20
2018-03-23T02:31:13.289Z,3.30
2018-03-23T02:34:16.638Z,2.93
2018-03-23T02:37:20.749Z,3.50
2018-03-23T02:40:24.108Z,3.20
2018-03-23T02:43:27.454Z,3.67
2018-03-23T02:46:31.561Z,3.13
2018-03-23T02:49:35.662Z,3.47
2018-03-23T02:52:39.823Z,4.20
2018-03-23T02:55:43.190Z,4.57
2018-03-23T02:58:47.303Z,3.77
2018-03-23T03:01:50.666Z,3.10
2018-03-23T03:04:54.288Z,3.87
2018-03-23T03:07:57.657Z,3.93
2018-03-23T03:11:01.002Z,3.23
2018-03-23T03:14:05.858Z,3.47
2018-03-23T03:17:10.029Z,2.50
2018-03-23T03:20:13.386Z,3.53
2018-03-23T03:23:16.726Z,3.00
2018-03-23T03:26:20.168Z,3.27
2018-03-23T03:29:24.286Z,3.07
2018-03-23T03:32:28.397Z,2.97
2018-03-23T03:35:33.248Z,3.10
2018-03-23T03:38:37.360Z,3.70
2018-03-23T03:41:41.468Z,3.57
2018-03-23T03:44:45.587Z,3.00
2018-03-23T03:47:49.824Z,2.50
2018-03-23T03:50:53.209Z,2.73
2018-03-23T03:53:57.320Z,2.50
2018-03-23T03:57:01.434Z,2.57
2018-03-23T04:00:05.542Z,2.43
2018-03-23T04:03:08.899Z,2.57
2018-03-23T04:06:12.277Z,3.20
2018-03-23T04:09:15.636Z,3.00
2018-03-23T04:12:19.032Z,2.40
2018-03-23T04:15:22.373Z,3.17
2018-03-23T04:18:25.782Z,3.00
2018-03-23T04:21:29.138Z,3.70
2018-03-23T04:24:33.280Z,2.77
2018-03-23T04:27:36.765Z,2.60
2018-03-23T04:30:40.908Z,2.60
2018-03-23T04:33:44.448Z,2.20
2018-03-23T04:36:47.828Z,1.70
2018-03-23T04:39:51.177Z,2.40
2018-03-23T04:42:55.328Z,2.33
2018-03-23T04:45:58.683Z,2.30
2018-03-23T04:49:02.134Z,1.90
2018-03-23T04:52:05.486Z,1.70
2018-03-23T04:55:08.909Z,1.93
2018-03-23T04:58:13.018Z,2.30
2018-03-23T05:01:17.160Z,2.17
2018-03-23T05:04:20.534Z,2.63
2018-03-23T05:07:24.649Z,2.40
2018-03-23T05:10:28.773Z,2.03
2018-03-23T05:13:32.895Z,1.73
2018-03-23T05:16:36.236Z,1.90
2018-03-23T05:19:39.644Z,1.93
2018-03-23T05:22:42.953Z,1.90
2018-03-23T05:25:47.830Z,2.83
2018-03-23T05:28:51.185Z,2.20
2018-03-23T05:31:54.536Z,1.60
2018-03-23T05:34:57.932Z,1.70
2018-03-23T05:38:01.254Z,1.50
2018-03-23T05:41:04.600Z,1.97
2018-03-23T05:44:08.732Z,1.90
2018-03-23T05:47:12.201Z,2.37
2018-03-23T05:50:15.514Z,2.70
2018-03-23T05:53:18.918Z,2.80
2018-03-23T05:56:23.065Z,3.13
2018-03-23T05:59:26.475Z,3.70
2018-03-23T06:02:29.861Z,2.67
2018-03-23T06:05:33.222Z,3.40
2018-03-23T06:08:36.650Z,3.30
2018-03-23T06:11:39.996Z,4.00
2018-03-23T06:14:43.344Z,3.50
2018-03-23T06:17:47.456Z,3.50
2018-03-23T06:20:51.590Z,3.17
2018-03-23T06:23:54.946Z,4.30
2018-03-23T06:26:58.300Z,3.53
2018-03-23T06:30:01.684Z,3.50
2018-03-23T06:33:05.053Z,3.30
2018-03-23T06:36:09.165Z,3.90
2018-03-23T06:39:12.500Z,4.30
2018-03-23T06:42:15.850Z,3.50
2018-03-23T06:45:20.113Z,3.70
2018-03-23T06:48:23.566Z,3.73
2018-03-23T06:51:27.701Z,3.10
2018-03-23T06:54:31.111Z,3.40
2018-03-23T06:57:34.439Z,3.00
2018-03-23T07:00:37.811Z,3.23
2018-03-23T07:03:42.046Z,3.03
2018-03-23T07:06:45.393Z,2.77
2018-03-23T07:09:48.757Z,2.87
2018-03-23T07:12:52.170Z,2.00
2018-03-23T07:15:55.531Z,2.23
2018-03-23T07:18:59.763Z,2.00
2018-03-23T07:22:03.125Z,2.10
2018-03-23T07:25:06.502Z,2.00
2018-03-23T07:28:10.069Z,2.10
2018-03-23T07:31:13.419Z,2.03
2018-03-23T07:34:17.691Z,1.87
2018-03-23T07:37:21.046Z,2.00
2018-03-23T07:40:24.427Z,1.70
2018-03-23T07:43:28.095Z,1.60
2018-03-23T07:46:31.609Z,2.30
2018-03-23T07:49:34.972Z,1.93
2018-03-23T07:52:39.121Z,2.30
2018-03-23T07:55:42.475Z,2.20
2018-03-23T07:58:45.885Z,2.30
2018-03-23T08:01:50.229Z,2.87
2018-03-23T08:04:53.822Z,3.40
2018-03-23T08:07:57.171Z,2.93
2018-03-23T08:11:00.630Z,2.80
2018-03-23T08:14:03.997Z,2.47
2018-03-23T08:17:07.472Z,2.10
2018-03-23T08:20:10.834Z,2.27
2018-03-23T08:23:14.185Z,2.30
2018-03-23T08:26:19.057Z,2.07
2018-03-23T08:29:22.435Z,1.73
2018-03-23T08:32:26.977Z,1.47
2018-03-23T08:35:30.469Z,1.20
2018-03-23T08:38:34.670Z,1.33
2018-03-23T08:41:38.101Z,3.07
2018-03-23T08:44:41.535Z,2.33
2018-03-23T08:47:44.844Z,1.87
2018-03-23T08:50:48.212Z,1.47
2018-03-23T08:53:51.814Z,1.53
2018-03-23T08:56:55.184Z,1.60
2018-03-23T08:59:59.426Z,1.20
2018-03-23T09:03:02.940Z,0.90
2018-03-23T09:06:06.326Z,1.33
2018-03-23T09:09:09.666Z,1.60
2018-03-23T09:12:13.023Z,1.20
2018-03-23T09:15:16.449Z,1.10
2018-03-23T09:18:19.846Z,0.90
2018-03-23T09:21:23.219Z,1.10
2018-03-23T09:24:26.624Z,1.00
2018-03-23T09:27:29.982Z,1.23
2018-03-23T09:30:33.346Z,1.00
2018-03-23T09:33:36.709Z,4.40
2018-03-23T09:36:40.848Z,0.90
2018-03-23T09:39:44.281Z,0.90
2018-03-23T09:42:47.644Z,1.37
2018-03-23T09:45:51.013Z,0.90
2018-03-23T09:48:55.136Z,1.20
2018-03-23T09:51:59.266Z,0.90
2018-03-23T09:55:02.636Z,1.50
2018-03-23T09:58:05.996Z,1.43
2018-03-23T10:01:09.451Z,1.10
2018-03-23T10:04:13.634Z,1.20
2018-03-23T10:07:16.989Z,4.93
2018-03-23T10:10:20.345Z,2.00
2018-03-23T10:13:23.703Z,9.83
2018-03-23T10:16:27.119Z,1.00
2018-03-23T10:19:30.486Z,1.33
2018-03-23T10:22:33.880Z,1.37
2018-03-23T10:25:37.245Z,0.80
2018-03-23T10:28:40.685Z,1.00
2018-03-23T10:31:45.522Z,1.00
2018-03-23T10:34:48.913Z,0.97
2018-03-23T10:37:52.253Z,0.90
2018-03-23T10:40:55.627Z,1.10
2018-03-23T10:43:58.974Z,1.10
2018-03-23T10:47:03.132Z,1.00
2018-03-23T10:50:06.481Z,0.97
2018-03-23T10:53:09.849Z,2.47
2018-03-23T10:56:13.199Z,1.50
2018-03-23T10:59:17.333Z,1.53
2018-03-23T11:05:56.354Z,4.70
2018-03-23T11:08:59.718Z,4.97
2018-03-23T11:12:03.097Z,2.27
2018-03-23T11:15:06.622Z,1.80
2018-03-23T11:18:09.970Z,1.20
2018-03-23T11:21:13.357Z,1.10
2018-03-23T11:24:16.758Z,1.40
2018-03-23T11:27:20.123Z,1.20
2018-03-23T11:30:23.580Z,1.23
2018-03-23T11:33:27.711Z,1.30
2018-03-23T11:36:31.118Z,1.30
2018-03-23T11:39:34.513Z,1.30
2018-03-23T11:42:37.862Z,1.60
2018-03-23T11:45:41.235Z,1.90
2018-03-23T11:48:44.574Z,1.47
2018-03-23T11:51:48.693Z,1.77
2018-03-23T11:54:52.145Z,1.37
2018-03-23T11:57:55.539Z,1.70
2018-03-23T12:00:58.925Z,1.77
2018-03-23T12:04:02.282Z,1.80
2018-03-23T12:07:05.647Z,1.83
2018-03-23T12:10:09.060Z,1.50
2018-03-23T12:13:12.422Z,1.40
2018-03-23T12:16:15.795Z,1.73
2018-03-23T12:19:19.947Z,1.80
2018-03-23T12:22:23.304Z,1.33
2018-03-23T12:25:27.434Z,1.67
2018-03-23T12:28:31.607Z,2.00
2018-03-23T12:31:34.982Z,1.60
2018-03-23T12:34:38.580Z,1.47
2018-03-23T12:37:42.177Z,1.93
2018-03-23T12:40:45.542Z,1.90
2018-03-23T12:43:49.161Z,1.70
2018-03-23T12:46:53.491Z,2.20
2018-03-23T12:49:57.597Z,3.60
2018-03-23T12:53:01.010Z,2.77
2018-03-23T12:56:04.374Z,2.37
2018-03-23T12:59:08.581Z,1.70
2018-03-23T13:02:12.130Z,1.67
2018-03-23T13:05:15.482Z,1.53
2018-03-23T13:08:18.840Z,2.50
2018-03-23T13:11:22.198Z,1.73
2018-03-23T13:14:25.553Z,2.83
2018-03-23T13:17:28.925Z,2.50
2018-03-23T13:20:32.330Z,2.90
2018-03-23T13:23:35.687Z,2.00
2018-03-23T13:26:39.062Z,1.80
2018-03-23T13:29:42.442Z,1.87
2018-03-23T13:32:45.829Z,2.37
2018-03-23T13:35:49.212Z,2.10
2018-03-23T13:38:53.363Z,2.67
2018-03-23T13:41:56.824Z,5.00
2018-03-23T13:45:01.041Z,2.43
2018-03-23T13:48:05.378Z,2.70
2018-03-23T13:51:08.983Z,3.17
2018-03-23T13:54:12.550Z,3.23
2018-03-23T13:57:16.869Z,3.43
2018-03-23T14:00:25.644Z,2.67
2018-03-23T14:03:29.003Z,2.80
2018-03-23T14:06:32.383Z,3.40
2018-03-23T14:09:35.706Z,3.07
2018-03-23T14:12:39.844Z,3.00
2018-03-23T14:15:43.219Z,3.10
2018-03-23T14:18:46.596Z,2.90
2018-03-23T14:21:50.030Z,2.63
2018-03-23T14:24:54.155Z,3.10
2018-03-23T14:27:58.345Z,2.80
2018-03-23T14:31:01.780Z,2.63
2018-03-23T14:34:05.245Z,2.60
2018-03-23T14:37:08.602Z,2.80
2018-03-23T14:40:11.980Z,3.37
2018-03-23T14:43:15.325Z,2.83
2018-03-23T14:46:25.841Z,3.00
2018-03-23T14:49:29.582Z,2.83
2018-03-23T14:52:32.939Z,2.70
2018-03-23T14:55:37.080Z,2.63
2018-03-23T14:58:45.992Z,2.33
2018-03-23T15:01:50.124Z,2.80
2018-03-23T15:04:53.482Z,2.60
2018-03-23T15:07:56.834Z,3.10
2018-03-23T15:11:00.214Z,2.97
2018-03-23T15:14:16.425Z,3.20
2018-03-23T15:17:19.821Z,3.40
2018-03-23T15:20:23.176Z,4.40
2018-03-23T15:23:26.556Z,3.53
2018-03-23T15:26:29.911Z,2.70
2018-03-23T15:29:33.293Z,3.33
2018-03-23T15:32:36.691Z,3.20
2018-03-23T15:35:40.814Z,2.90
2018-03-23T15:38:44.999Z,3.13
2018-03-23T15:41:49.158Z,3.23
2018-03-23T15:44:52.589Z,3.80
2018-03-23T15:47:55.925Z,3.43
2018-03-23T15:50:59.531Z,3.23
2018-03-23T15:54:02.884Z,3.83
2018-03-23T15:57:06.242Z,3.57
2018-03-23T16:00:10.390Z,3.67
2018-03-23T16:03:13.748Z,2.73
2018-03-23T16:06:17.162Z,3.20
2018-03-23T16:09:21.308Z,3.30
2018-03-23T16:12:24.761Z,3.33
2018-03-23T16:15:29.639Z,3.50
2018-03-23T16:18:33.064Z,3.53
2018-03-23T16:21:36.397Z,3.33
2018-03-23T16:24:39.784Z,3.43
2018-03-23T16:27:43.316Z,3.60
2018-03-23T16:30:47.547Z,3.53
2018-03-23T16:33:50.903Z,3.60
2018-03-23T16:36:54.271Z,3.20
2018-03-23T16:39:57.645Z,3.43
2018-03-23T16:43:01.019Z,3.50
2018-03-23T16:46:05.255Z,3.77
2018-03-23T16:49:09.414Z,4.53
2018-03-23T16:52:12.771Z,4.10
2018-03-23T16:55:16.897Z,4.13
2018-03-23T16:58:20.240Z,3.90
2018-03-23T17:01:23.615Z,4.17
2018-03-23T17:04:26.987Z,4.33
2018-03-23T17:07:31.272Z,4.90
2018-03-23T17:10:34.625Z,5.30
2018-03-23T17:13:38.046Z,6.10
2018-03-23T17:16:42.183Z,6.13
2018-03-23T17:19:46.489Z,5.23
2018-03-23T17:22:49.843Z,5.47
2018-03-23T17:25:53.235Z,5.87
2018-03-23T17:28:57.600Z,6.10
2018-03-23T17:32:01.079Z,6.27
2018-03-23T17:35:04.606Z,5.77
2018-03-23T17:38:08.005Z,5.87
2018-03-23T17:41:11.560Z,6.10
2018-03-23T17:44:15.900Z,7.70
2018-03-23T17:47:20.267Z,7.70
2018-03-23T17:50:23.635Z,7.47
2018-03-23T17:53:27.010Z,7.77
2018-03-23T17:56:31.426Z,7.43
2018-03-23T17:59:35.590Z,7.10
2018-03-23T18:02:38.996Z,7.10
2018-03-23T18:05:42.675Z,7.00
2018-03-23T18:08:46.077Z,6.57
2018-03-23T18:11:49.530Z,5.87
2018-03-23T18:14:52.904Z,6.30
2018-03-23T18:17:56.286Z,6.53
2018-03-23T18:20:59.663Z,5.87
2018-03-23T18:24:03.076Z,5.63
2018-03-23T18:27:06.430Z,5.50
2018-03-23T18:30:09.805Z,5.80
2018-03-23T18:33:13.276Z,6.37
2018-03-23T18:36:16.635Z,6.00
2018-03-23T18:39:20.796Z,5.83
2018-03-23T18:42:24.149Z,6.20
2018-03-23T18:45:27.655Z,5.57
2018-03-23T18:48:31.862Z,5.77
2018-03-23T18:51:35.231Z,6.10
2018-03-23T18:54:38.620Z,5.70
2018-03-23T18:57:42.006Z,6.07
2018-03-23T19:00:45.426Z,6.63
2018-03-23T19:03:48.804Z,6.40
2018-03-23T19:06:52.186Z,6.50
2018-03-23T19:09:56.312Z,6.50
2018-03-23T19:12:59.690Z,7.07
2018-03-23T19:16:03.858Z,6.70
2018-03-23T19:19:07.392Z,7.10
2018-03-23T19:22:10.808Z,7.20
2018-03-23T19:25:14.944Z,7.27
2018-03-23T19:28:18.320Z,8.07
2018-03-23T19:31:21.696Z,8.13
2018-03-23T19:34:25.058Z,9.00
2018-03-23T19:37:28.558Z,9.63
2018-03-23T19:40:31.950Z,8.83
2018-03-23T19:43:35.344Z,8.60
2018-03-23T19:46:38.763Z,8.90
2018-03-23T19:49:42.881Z,9.60
2018-03-23T19:52:46.534Z,9.43
2018-03-23T19:55:49.898Z,9.23
2018-03-23T19:58:53.286Z,9.27
2018-03-23T20:01:56.644Z,9.87
2018-03-23T20:05:00.780Z,10.13
2018-03-23T20:08:04.159Z,10.03
2018-03-23T20:11:08.289Z,9.93
2018-03-23T20:14:12.450Z,10.23
2018-03-23T20:17:16.126Z,10.93
2018-03-23T20:20:25.032Z,10.97
2018-03-23T20:23:29.230Z,11.77
2018-03-23T20:26:32.596Z,11.40
2018-03-23T20:29:35.984Z,12.43
2018-03-23T20:32:39.452Z,11.77
2018-03-23T20:35:43.741Z,11.70
2018-03-23T20:38:47.950Z,13.53
2018-03-23T20:41:51.350Z,12.30
2018-03-23T20:44:54.772Z,13.07
2018-03-23T20:47:58.150Z,12.77
2018-03-23T20:51:01.549Z,13.47
2018-03-23T20:54:04.925Z,13.60
2018-03-23T20:57:08.306Z,13.13
2018-03-23T21:00:11.670Z,14.00
2018-03-23T21:03:15.044Z,13.40
2018-03-23T21:06:18.423Z,14.97
2018-03-23T21:09:21.816Z,14.13
2018-03-23T21:12:25.217Z,15.63
2018-03-23T21:15:28.583Z,15.40
2018-03-23T21:18:32.711Z,15.67
2018-03-23T21:21:36.844Z,15.80
2018-03-23T21:24:40.212Z,15.73
2018-03-23T21:27:44.472Z,16.07
2018-03-23T21:30:47.886Z,15.77
2018-03-23T21:33:51.331Z,16.67
2018-03-23T21:36:55.663Z,16.33
2018-03-23T21:39:59.866Z,17.07
2018-03-23T21:43:03.245Z,18.93
2018-03-23T21:46:06.625Z,18.27
2018-03-23T21:49:09.974Z,19.57
2018-03-23T21:52:14.094Z,19.07
2018-03-23T21:55:18.220Z,19.80
2018-03-23T21:58:22.355Z,19.57
2018-03-23T22:01:25.730Z,19.93
2018-03-23T22:04:29.874Z,19.53
2018-03-23T22:07:33.239Z,18.77
2018-03-23T22:10:37.446Z,20.00
2018-03-23T22:13:40.815Z,20.53
2018-03-23T22:16:44.202Z,21.13
2018-03-23T22:19:47.567Z,20.77
2018-03-23T22:22:50.926Z,19.60
2018-03-23T22:25:55.797Z,19.87
2018-03-23T22:29:00.015Z,21.27
2018-03-23T22:32:04.150Z,21.73
2018-03-23T22:35:07.541Z,21.70
2018-03-23T22:38:10.919Z,22.07
2018-03-23T22:41:15.037Z,24.03
2018-03-23T22:44:19.174Z,22.13
2018-03-23T22:47:22.551Z,25.80
2018-03-23T22:50:26.695Z,24.83
2018-03-23T22:53:30.098Z,25.40
2018-03-23T22:56:33.607Z,26.20
2018-03-23T22:59:36.973Z,26.43
2018-03-23T23:02:41.119Z,27.33
2018-03-23T23:05:44.481Z,29.10
2018-03-23T23:08:48.094Z,28.83
2018-03-23T23:11:52.402Z,29.07
2018-03-23T23:14:55.780Z,30.13
2018-03-23T23:17:59.163Z,32.13
2018-03-23T23:21:02.582Z,30.67
2018-03-23T23:24:05.950Z,32.80
2018-03-23T23:27:09.334Z,31.47
2018-03-23T23:30:12.733Z,31.77
2018-03-23T23:33:16.100Z,31.70
2018-03-23T23:36:20.288Z,32.00
2018-03-23T23:39:23.645Z,33.27
2018-03-23T23:42:26.993Z,31.50
2018-03-23T23:45:30.405Z,32.70
2018-03-23T23:48:33.742Z,30.77
2018-03-23T23:51:37.136Z,31.80
2018-03-23T23:54:40.499Z,32.83
2018-03-23T23:57:43.868Z,32.60
